Time;durP1;ratioP1;P1;durP2;ratioP2;P2;SDS_P1;SDS_P2;PMS_P1;PMS_P2;Temp;Humidity;BMP_temperature;BMP_pressure;BME280_temperature;BME280_humidity;BME280_pressure;Samples;Min_cycle;Max_cycle;Signal;HPM_P1;HPM_P2
2023/01/19 00:00:14;;;;;;;15.50;9.82;;;;;;;2.31;90.76;100056.59;4993884;28;20038;-61
2023/01/19 00:02:39;;;;;;;14.32;9.63;;;;;;;2.29;91.73;100060.88;4993714;28;20476;-62
2023/01/19 00:05:05;;;;;;;16.25;9.18;;;;;;;2.29;91.26;100064.38;4976184;28;20053;-61
2023/01/19 00:07:31;;;;;;;16.08;9.63;;;;;;;2.27;91.66;100066.06;4993935;28;20105;-62
2023/01/19 00:09:57;;;;;;;16.42;9.63;;;;;;;2.30;91.30;100058.31;4993717;28;20026;-61
2023/01/19 00:12:22;;;;;;;16.48;9.60;;;;;;;2.28;91.93;100067.81;4993692;28;20469;-61
2023/01/19 00:14:47;;;;;;;15.90;8.93;;;;;;;2.35;91.62;100061.94;4993856;28;20110;-63
2023/01/19 00:17:13;;;;;;;13.57;8.32;;;;;;;2.40;91.21;100068.19;4993517;28;20026;-62
2023/01/19 00:19:38;;;;;;;14.13;8.60;;;;;;;2.46;90.91;100070.97;4993605;28;20062;-62
2023/01/19 00:22:06;;;;;;;16.92;9.63;;;;;;;2.38;91.18;100080.28;4993604;28;20391;-62
2023/01/19 00:24:32;;;;;;;13.00;9.23;;;;;;;2.39;91.19;100075.94;4993519;28;20019;-62
2023/01/19 00:26:58;;;;;;;16.08;9.57;;;;;;;2.38;91.51;100072.47;4993533;28;20042;-62
2023/01/19 00:29:23;;;;;;;15.88;9.35;;;;;;;2.43;90.97;100078.69;4993427;28;20026;-62
2023/01/19 00:31:49;;;;;;;15.35;9.13;;;;;;;2.49;90.89;100072.81;4993765;28;20105;-63
2023/01/19 00:34:15;;;;;;;17.25;9.48;;;;;;;2.50;90.78;100078.06;4993499;28;20037;-62
2023/01/19 00:36:40;;;;;;;14.75;9.10;;;;;;;2.57;90.63;100075.63;4993429;28;20110;-62
2023/01/19 00:39:06;;;;;;;14.18;8.77;;;;;;;2.58;90.82;100086.13;4993418;28;20030;-62
2023/01/19 00:44:29;;;;;;;14.52;9.43;;;;;;;2.63;89.95;100079.31;4950240;28;20094;-62
2023/01/19 00:46:54;;;;;;;14.82;9.68;;;;;;;2.58;90.52;100087.84;4992981;28;20054;-62
2023/01/19 00:49:20;;;;;;;15.77;8.73;;;;;;;2.55;90.53;100078.19;4995686;28;20045;-62
2023/01/19 00:51:45;;;;;;;15.70;9.77;;;;;;;2.46;90.89;100078.81;4997285;28;20050;-63
2023/01/19 00:54:10;;;;;;;15.70;9.02;;;;;;;2.43;91.20;100063.06;4996857;28;20499;-63
2023/01/19 00:56:36;;;;;;;15.80;9.43;;;;;;;2.37;91.92;100065.50;4996782;28;20073;-63
2023/01/19 00:59:03;;;;;;;16.17;9.68;;;;;;;2.29;91.94;100063.47;4996793;28;20061;-63
2023/01/19 01:01:29;;;;;;;16.30;9.43;;;;;;;2.26;91.52;100065.13;4996744;28;20551;-64
2023/01/19 01:03:54;;;;;;;17.58;9.93;;;;;;;2.22;92.12;100070.22;4996997;28;20110;-63
2023/01/19 01:06:20;;;;;;;16.80;10.18;;;;;;;2.19;91.85;100057.09;4997042;28;20057;-63
2023/01/19 01:08:46;;;;;;;15.57;9.30;;;;;;;2.12;92.35;100069.03;4996798;28;20388;-63
2023/01/19 01:11:11;;;;;;;17.27;9.38;;;;;;;2.11;92.50;100080.31;4996671;28;20374;-63
2023/01/19 01:13:36;;;;;;;16.42;9.27;;;;;;;2.11;93.00;100074.22;4996502;28;20057;-62
2023/01/19 01:16:02;;;;;;;16.30;9.55;;;;;;;2.12;92.65;100073.38;4996387;28;20018;-63
2023/01/19 01:18:27;;;;;;;15.27;10.35;;;;;;;2.12;92.44;100068.16;4996460;28;20054;-63
2023/01/19 01:21:03;;;;;;;16.30;10.02;;;;;;;2.07;92.76;100078.44;4978966;28;20114;-63
2023/01/19 01:23:29;;;;;;;14.70;8.70;;;;;;;2.10;92.42;100082.84;4996512;28;20089;-63
2023/01/19 01:25:54;;;;;;;14.57;9.40;;;;;;;2.18;92.30;100097.91;4996451;28;20031;-63
2023/01/19 01:28:20;;;;;;;13.98;8.75;;;;;;;2.23;91.63;100096.34;4996629;28;20038;-63
2023/01/19 01:30:45;;;;;;;14.15;8.48;;;;;;;2.25;91.66;100093.78;4996300;28;20408;-63
2023/01/19 01:33:10;;;;;;;14.40;9.13;;;;;;;2.26;91.55;100087.72;4996247;28;20534;-63
2023/01/19 01:35:36;;;;;;;14.35;8.77;;;;;;;2.33;91.64;100086.22;4978756;28;20030;-63
2023/01/19 01:38:02;;;;;;;15.68;9.05;;;;;;;2.34;91.49;100087.97;4996116;28;20424;-63
2023/01/19 01:40:28;;;;;;;15.30;9.13;;;;;;;2.33;91.39;100079.28;4996320;28;20019;-63
2023/01/19 01:42:53;;;;;;;18.90;9.13;;;;;;;2.33;91.81;100079.28;4996180;28;20109;-63
2023/01/19 01:45:34;;;;;;;15.73;8.65;;;;;;;2.31;91.78;100078.31;4995799;28;20515;-63
2023/01/19 01:48:09;;;;;;;13.35;9.20;;;;;;;2.34;91.55;100086.25;4996040;28;20026;-63
2023/01/19 01:51:22;;;;;;;14.30;8.82;;;;;;;2.44;90.88;100090.00;4996060;28;20093;-63
2023/01/19 01:53:27;;;;;;;14.63;9.60;;;;;;;2.41;91.21;100083.00;4995686;28;20031;-62
2023/01/19 01:55:53;;;;;;;13.35;8.38;;;;;;;2.47;90.61;100087.50;4995996;28;20391;-63
2023/01/19 01:58:18;;;;;;;13.75;8.45;;;;;;;2.41;91.00;100085.59;4995953;28;20516;-64
2023/01/19 02:03:28;;;;;;;13.20;8.45;;;;;;;2.36;91.40;100089.81;4996062;28;20476;-67
2023/01/19 02:05:58;;;;;;;12.85;7.57;;;;;;;2.31;92.21;100096.56;4995718;28;20034;-66
2023/01/19 02:14:30;;;;;;;13.95;7.00;;;;;;;2.10;92.64;100099.41;4995890;28;20548;-67
2023/01/19 02:16:55;;;;;;;15.85;7.13;;;;;;;2.07;93.01;100101.91;4995210;28;20101;-67
2023/01/19 02:19:29;;;;;;;11.80;6.75;;;;;;;2.07;92.87;100098.41;4995391;28;20027;-68
2023/01/19 02:22:06;;;;;;;11.32;6.68;;;;;;;2.05;93.26;100102.66;4995386;28;20535;-67
2023/01/19 02:24:32;;;;;;;13.07;7.32;;;;;;;1.97;93.21;100100.72;4995425;28;20026;-67
2023/01/19 02:26:58;;;;;;;10.90;6.63;;;;;;;1.95;93.09;100104.09;4995177;28;20034;-67
2023/01/19 02:29:25;;;;;;;14.82;7.10;;;;;;;1.91;93.79;100107.44;4995301;28;20026;-67
2023/01/19 02:31:51;;;;;;;10.77;6.03;;;;;;;1.87;93.46;100109.03;4995171;28;20038;-67
2023/01/19 02:34:19;;;;;;;12.30;7.03;;;;;;;1.85;94.63;100115.03;4995104;28;20396;-68
2023/01/19 02:36:55;;;;;;;9.75;6.43;;;;;;;1.87;94.14;100115.97;4994987;28;20038;-68
2023/01/19 02:39:50;;;;;;;13.82;6.68;;;;;;;1.85;93.98;100104.63;4995312;28;20030;-69
2023/01/19 02:42:38;;;;;;;13.55;6.32;;;;;;;1.84;94.09;100110.66;4993366;28;20400;-69
2023/01/19 02:45:05;;;;;;;12.80;7.22;;;;;;;1.82;93.80;100114.94;4994651;28;20054;-69
2023/01/19 02:47:45;;;;;;;13.38;6.65;;;;;;;1.82;94.27;100118.41;4994867;28;20031;-69
2023/01/19 02:50:36;;;;;;;12.38;6.82;;;;;;;1.80;94.70;100117.50;4994898;28;20113;-70
2023/01/19 02:53:38;;;;;;;9.23;5.93;;;;;;;1.82;94.71;100122.75;4994752;28;20031;-69
2023/01/19 02:56:19;;;;;;;12.02;7.53;;;;;;;1.75;94.90;100130.34;4977285;28;20029;-69
2023/01/19 02:58:51;;;;;;;11.82;8.02;;;;;;;1.72;94.65;100117.22;4994620;28;20022;-69
2023/01/19 03:01:44;;;;;;;12.55;6.60;;;;;;;1.72;94.81;100121.56;4994629;28;20026;-69
2023/01/19 03:04:26;;;;;;;14.48;7.95;;;;;;;1.70;94.96;100121.47;4994634;28;20101;-69
2023/01/19 03:07:05;;;;;;;11.00;7.38;;;;;;;1.72;94.76;100132.84;4994746;28;20027;-69
2023/01/19 03:09:45;;;;;;;11.98;7.07;;;;;;;1.66;95.23;100132.63;4994659;28;20033;-69
2023/01/19 03:12:35;;;;;;;10.82;7.00;;;;;;;1.69;94.48;100134.47;4993948;28;20030;-69
2023/01/19 03:15:29;;;;;;;12.02;7.35;;;;;;;1.61;95.18;100138.50;4994435;28;20022;-69
2023/01/19 03:17:57;;;;;;;12.40;7.68;;;;;;;1.62;94.87;100137.69;4994175;28;20065;-69
2023/01/19 03:20:24;;;;;;;12.30;8.10;;;;;;;1.65;94.73;100148.22;4994269;28;20027;-69
2023/01/19 03:22:54;;;;;;;14.02;8.30;;;;;;;1.60;95.41;100148.06;4994236;28;20018;-69
2023/01/19 03:25:22;;;;;;;11.50;7.57;;;;;;;1.56;95.77;100148.78;4994321;28;20061;-69
2023/01/19 03:27:51;;;;;;;13.90;7.53;;;;;;;1.61;95.85;100156.75;4994189;28;20498;-68
2023/01/19 03:30:21;;;;;;;12.70;8.73;;;;;;;1.65;95.70;100148.22;4994094;28;20118;-69
2023/01/19 03:32:51;;;;;;;13.65;8.27;;;;;;;1.68;95.77;100158.75;4994175;28;20072;-69
2023/01/19 03:35:18;;;;;;;13.18;8.95;;;;;;;1.60;94.64;100155.84;4994035;28;20106;-69
2023/01/19 03:37:49;;;;;;;12.93;9.15;;;;;;;1.65;94.80;100161.22;4993777;28;20035;-70
2023/01/19 03:40:15;;;;;;;11.55;8.77;;;;;;;1.57;95.19;100147.06;4994070;28;20081;-70
2023/01/19 03:42:41;;;;;;;12.23;7.78;;;;;;;1.67;94.54;100168.28;4993989;28;20065;-70
2023/01/19 03:45:07;;;;;;;10.95;7.55;;;;;;;1.58;95.20;100178.34;4993887;28;20046;-69
2023/01/19 03:47:34;;;;;;;9.98;7.60;;;;;;;1.57;95.67;100181.78;4993891;28;20026;-69
2023/01/19 03:50:02;;;;;;;11.55;7.88;;;;;;;1.61;95.47;100175.84;4994053;28;20432;-69
2023/01/19 03:52:31;;;;;;;10.55;7.88;;;;;;;1.60;95.30;100181.00;4993836;28;20022;-69
2023/01/19 03:54:56;;;;;;;9.77;7.40;;;;;;;1.53;95.26;100181.63;4993837;28;20026;-69
2023/01/19 03:57:22;;;;;;;10.13;7.40;;;;;;;1.52;96.12;100188.53;4976308;28;20089;-69
2023/01/19 03:59:48;;;;;;;9.23;6.82;;;;;;;1.58;96.05;100198.28;4993798;28;20026;-69
2023/01/19 04:02:13;;;;;;;8.90;6.70;;;;;;;1.62;95.54;100201.06;4993584;28;20439;-69
2023/01/19 04:04:39;;;;;;;9.05;6.72;;;;;;;1.55;95.35;100206.88;4976280;28;20026;-69
2023/01/19 04:07:04;;;;;;;9.02;6.72;;;;;;;1.55;95.15;100206.88;4993942;28;20046;-68
2023/01/19 04:09:30;;;;;;;10.40;7.05;;;;;;;1.55;95.42;100214.69;4993650;28;20026;-68
2023/01/19 04:11:56;;;;;;;8.15;6.13;;;;;;;1.56;95.61;100215.59;4993691;28;20110;-68
2023/01/19 04:14:21;;;;;;;7.75;6.32;;;;;;;1.56;95.81;100220.78;4993928;28;20113;-68
2023/01/19 04:16:47;;;;;;;7.15;5.75;;;;;;;1.56;96.38;100218.19;4993356;28;20115;-68
2023/01/19 04:19:12;;;;;;;6.32;4.88;;;;;;;1.58;95.71;100226.91;4993654;28;20032;-69
2023/01/19 04:21:38;;;;;;;6.50;4.85;;;;;;;1.59;96.15;100220.91;4993668;28;20038;-68
2023/01/19 04:24:04;;;;;;;5.57;4.18;;;;;;;1.57;95.92;100222.56;4995545;28;20035;-68
2023/01/19 04:26:29;;;;;;;4.82;3.92;;;;;;;1.54;96.09;100222.44;4980021;28;20039;-68
2023/01/19 04:28:54;;;;;;;5.03;4.00;;;;;;;1.55;95.92;100227.72;4997427;28;20073;-68
2023/01/19 04:31:21;;;;;;;4.70;3.85;;;;;;;1.54;96.62;100236.34;4997401;28;20509;-68
2023/01/19 04:33:46;;;;;;;5.63;4.38;;;;;;;1.55;96.81;100229.44;4997269;28;20076;-68
2023/01/19 04:36:12;;;;;;;5.85;4.03;;;;;;;1.58;96.23;100237.34;4997335;28;20050;-68
2023/01/19 04:38:37;;;;;;;4.70;3.67;;;;;;;1.56;95.90;100242.50;4997266;28;20065;-67
2023/01/19 04:41:03;;;;;;;4.18;3.20;;;;;;;1.56;95.92;100241.63;4997256;28;20037;-68
2023/01/19 04:43:28;;;;;;;4.53;3.50;;;;;;;1.54;96.54;100248.47;4997225;28;20484;-67
2023/01/19 04:45:53;;;;;;;4.25;3.30;;;;;;;1.55;96.62;100245.06;4996962;28;20522;-67
2023/01/19 04:48:19;;;;;;;4.47;3.60;;;;;;;1.55;96.63;100243.34;4996881;28;20041;-68
2023/01/19 04:50:45;;;;;;;3.58;3.00;;;;;;;1.54;96.38;100240.66;4997295;28;20038;-68
2023/01/19 04:53:12;;;;;;;3.50;2.67;;;;;;;1.53;96.08;100251.91;4997094;28;20106;-68
2023/01/19 04:55:38;;;;;;;3.20;2.67;;;;;;;1.52;96.32;100226.72;4997213;28;20158;-68
2023/01/19 04:58:03;;;;;;;3.60;2.40;;;;;;;1.52;96.42;100229.31;4996890;28;20026;-68
2023/01/19 05:00:29;;;;;;;3.65;2.65;;;;;;;1.49;95.94;100217.94;4996831;28;20022;-68
2023/01/19 05:02:54;;;;;;;3.30;2.80;;;;;;;1.35;96.93;100192.25;4996803;28;20027;-68
2023/01/19 05:05:19;;;;;;;3.10;2.55;;;;;;;1.25;97.93;100196.22;4996818;28;20442;-68
2023/01/19 05:07:45;;;;;;;4.07;3.00;;;;;;;1.20;98.09;100188.25;4996659;28;20034;-68
2023/01/19 05:10:11;;;;;;;3.60;2.85;;;;;;;1.20;98.04;100195.16;4996990;28;20022;-68
2023/01/19 05:12:37;;;;;;;3.50;2.75;;;;;;;1.24;97.99;100186.63;4996651;28;20034;-68
2023/01/19 05:15:03;;;;;;;3.83;2.90;;;;;;;1.28;98.11;100187.63;4996549;28;20081;-68
2023/01/19 05:17:29;;;;;;;3.80;3.10;;;;;;;1.28;98.05;100191.13;4996356;28;20022;-68
2023/01/19 05:19:54;;;;;;;4.68;3.75;;;;;;;1.31;97.76;100188.63;4996530;28;20400;-68
2023/01/19 05:22:20;;;;;;;3.92;3.33;;;;;;;1.33;98.08;100170.47;4996465;28;20026;-68
2023/01/19 05:24:45;;;;;;;5.63;3.70;;;;;;;1.34;97.77;100170.53;4996718;28;20101;-68
2023/01/19 05:27:11;;;;;;;4.75;3.45;;;;;;;1.38;97.98;100167.22;4996348;28;20035;-68
2023/01/19 05:29:36;;;;;;;5.60;3.50;;;;;;;1.38;97.55;100179.34;4996314;28;20137;-68
2023/01/19 05:32:02;;;;;;;5.32;3.33;;;;;;;1.41;97.57;100182.97;4978812;28;20129;-68
2023/01/19 05:34:27;;;;;;;4.50;3.40;;;;;;;1.49;97.24;100193.63;4978504;28;20031;-68
2023/01/19 05:36:52;;;;;;;5.32;3.30;;;;;;;1.51;97.55;100199.78;4978957;28;20078;-68
2023/01/19 05:39:18;;;;;;;7.72;3.72;;;;;;;1.43;97.76;100196.03;4996338;28;20022;-68
2023/01/19 05:41:44;;;;;;;4.32;3.20;;;;;;;1.47;97.73;100217.00;4995995;28;20026;-68
2023/01/19 05:44:10;;;;;;;5.88;4.18;;;;;;;1.51;97.38;100218.03;4996042;28;20058;-68
2023/01/19 05:46:36;;;;;;;4.97;3.90;;;;;;;1.50;96.89;100217.13;4995533;28;20468;-68
2023/01/19 05:49:03;;;;;;;6.03;4.50;;;;;;;1.46;97.41;100215.25;4995794;28;20093;-68
2023/01/19 05:51:44;;;;;;;6.90;4.65;;;;;;;1.48;96.95;100220.50;4996238;28;20448;-68
2023/01/19 05:54:11;;;;;;;8.55;5.70;;;;;;;1.47;97.42;100231.75;4995900;28;20037;-68
2023/01/19 05:56:38;;;;;;;7.50;5.93;;;;;;;1.45;97.30;100223.88;4996001;28;20448;-68
2023/01/19 05:59:03;;;;;;;8.30;6.10;;;;;;;1.47;96.68;100231.75;4995681;28;20381;-68
2023/01/19 06:01:29;;;;;;;8.25;5.63;;;;;;;1.48;96.96;100243.94;4995578;28;20073;-68
2023/01/19 06:03:54;;;;;;;9.73;6.43;;;;;;;1.47;97.41;100235.25;4995698;28;20038;-68
2023/01/19 06:06:20;;;;;;;9.13;6.13;;;;;;;1.52;97.09;100239.72;4995667;28;20387;-67
2023/01/19 06:08:45;;;;;;;8.05;6.40;;;;;;;1.52;97.30;100251.03;4962101;28;20038;-67
2023/01/19 06:11:11;;;;;;;9.75;6.65;;;;;;;1.54;97.32;100241.53;4995513;28;20043;-68
2023/01/19 06:13:38;;;;;;;7.82;6.38;;;;;;;1.57;97.37;100230.38;4995509;28;20053;-68
2023/01/19 06:16:05;;;;;;;9.23;6.85;;;;;;;1.57;97.03;100236.47;4995482;28;20030;-68
2023/01/19 06:18:30;;;;;;;10.02;6.32;;;;;;;1.56;97.04;100237.28;4995221;28;20033;-67
2023/01/19 06:20:59;;;;;;;8.93;7.18;;;;;;;1.55;96.73;100248.53;4995355;28;20400;-68
2023/01/19 06:23:25;;;;;;;12.90;7.13;;;;;;;1.55;96.91;100255.47;4995297;28;20030;-68
2023/01/19 06:25:51;;;;;;;11.95;6.70;;;;;;;1.54;97.18;100253.69;4995455;28;20027;-67
2023/01/19 06:28:16;;;;;;;10.45;7.07;;;;;;;1.52;97.34;100247.53;4995247;28;20392;-67
2023/01/19 06:30:42;;;;;;;10.27;7.35;;;;;;;1.53;97.42;100262.31;4995425;28;20054;-67
2023/01/19 06:33:08;;;;;;;10.32;7.05;;;;;;;1.49;97.25;100264.81;4995147;28;20030;-68
2023/01/19 06:35:34;;;;;;;13.48;7.63;;;;;;;1.55;97.64;100271.09;4995255;28;20038;-67
2023/01/19 06:38:00;;;;;;;10.48;7.38;;;;;;;1.53;97.66;100286.63;4995000;28;20034;-67
2023/01/19 06:40:25;;;;;;;11.23;7.88;;;;;;;1.52;97.36;100278.78;4995027;28;20061;-67
2023/01/19 06:42:51;;;;;;;11.70;7.38;;;;;;;1.54;97.19;100279.72;4977745;28;20062;-67
2023/01/19 06:45:17;;;;;;;10.80;7.65;;;;;;;1.55;97.64;100282.41;4976988;28;20085;-67
2023/01/19 06:47:42;;;;;;;11.63;7.90;;;;;;;1.55;98.03;100282.41;4994212;28;20074;-67
2023/01/19 06:50:08;;;;;;;11.23;8.65;;;;;;;1.57;97.71;100282.44;4994858;28;20469;-68
2023/01/19 06:52:40;;;;;;;11.70;9.23;;;;;;;1.53;98.29;100290.97;4994833;28;20027;-68
2023/01/19 06:55:09;;;;;;;18.05;10.27;;;;;;;1.50;98.58;100290.03;4994840;28;20037;-67
2023/01/19 06:57:35;;;;;;;14.48;9.10;;;;;;;1.54;97.99;100295.34;4994579;28;20038;-68
2023/01/19 07:00:04;;;;;;;16.10;10.07;;;;;;;1.56;98.18;100296.28;4994767;28;20019;-68
2023/01/19 07:02:29;;;;;;;14.68;10.30;;;;;;;1.59;97.84;100299.91;4994679;28;20094;-68
2023/01/19 07:04:55;;;;;;;13.25;10.63;;;;;;;1.62;98.00;100307.81;4977319;28;20034;-67
2023/01/19 07:07:20;;;;;;;18.40;12.05;;;;;;;1.60;98.36;100306.88;4994516;28;20027;-67
2023/01/19 07:09:46;;;;;;;15.35;11.75;;;;;;;1.58;98.56;100310.25;4994492;28;20030;-68
2023/01/19 07:12:11;;;;;;;15.98;11.45;;;;;;;1.62;97.88;100314.75;4994430;28;20542;-67
2023/01/19 07:14:36;;;;;;;13.48;11.00;;;;;;;1.65;98.50;100320.97;4994387;28;20022;-67
2023/01/19 07:17:02;;;;;;;17.35;12.30;;;;;;;1.65;98.08;100318.34;4994070;28;20109;-67
2023/01/19 07:19:27;;;;;;;16.30;11.93;;;;;;;1.66;98.08;100327.06;4994308;28;20023;-67
2023/01/19 07:21:53;;;;;;;20.65;12.57;;;;;;;1.69;98.15;100327.19;4994325;28;20101;-67
2023/01/19 07:24:18;;;;;;;18.05;12.20;;;;;;;1.69;98.26;100329.78;4994214;28;20026;-67
2023/01/19 07:26:43;;;;;;;16.38;11.90;;;;;;;1.69;98.25;100330.66;4994150;28;20535;-67
2023/01/19 07:29:09;;;;;;;18.42;12.13;;;;;;;1.67;98.61;100334.94;4994231;28;20034;-68
2023/01/19 07:31:34;;;;;;;17.17;12.57;;;;;;;1.68;98.19;100328.00;4994064;28;20077;-68
2023/01/19 07:34:00;;;;;;;15.40;12.13;;;;;;;1.73;98.32;100339.50;4994128;28;20392;-68
2023/01/19 07:36:25;;;;;;;17.60;11.77;;;;;;;1.77;98.36;100340.50;4994080;28;20125;-67
2023/01/19 07:38:50;;;;;;;16.27;12.18;;;;;;;1.79;98.41;100346.63;4993952;28;20050;-68
2023/01/19 07:41:16;;;;;;;17.50;13.00;;;;;;;1.80;98.66;100345.78;4994028;28;20477;-67
2023/01/19 07:43:41;;;;;;;18.33;12.68;;;;;;;1.81;98.79;100351.09;4993986;28;20088;-67
2023/01/19 07:46:07;;;;;;;21.98;13.80;;;;;;;1.81;98.24;100352.81;4993667;28;20451;-68
2023/01/19 07:48:32;;;;;;;20.95;13.18;;;;;;;1.80;98.21;100354.53;4993984;28;20034;-68
2023/01/19 07:50:59;;;;;;;17.83;12.55;;;;;;;1.82;97.82;100360.66;4993998;28;20485;-68
2023/01/19 07:53:25;;;;;;;21.67;12.85;;;;;;;1.82;98.64;100365.88;4993944;28;20101;-68
2023/01/19 07:55:55;;;;;;;18.98;12.45;;;;;;;1.82;98.08;100371.09;4993844;28;20495;-67
2023/01/19 07:58:21;;;;;;;21.48;14.18;;;;;;;1.78;98.62;100377.00;4993699;28;20029;-67
2023/01/19 08:00:47;;;;;;;19.05;12.82;;;;;;;1.78;98.32;100370.91;4993816;28;20031;-68
2023/01/19 08:03:12;;;;;;;22.73;13.95;;;;;;;1.78;98.44;100374.41;4993817;28;20158;-68
2023/01/19 08:05:37;;;;;;;22.90;14.38;;;;;;;1.81;97.99;100377.13;4993667;28;20109;-68
2023/01/19 08:08:04;;;;;;;23.08;14.15;;;;;;;1.75;98.35;100376.88;4993710;28;20026;-67
2023/01/19 08:10:30;;;;;;;20.23;13.20;;;;;;;1.74;98.55;100380.31;4993733;28;20358;-68
2023/01/19 08:12:56;;;;;;;21.55;13.68;;;;;;;1.73;98.58;100379.44;4993672;28;20034;-67
2023/01/19 08:15:23;;;;;;;20.98;13.32;;;;;;;1.77;98.21;100382.16;4993669;28;20034;-67
2023/01/19 08:17:55;;;;;;;21.85;13.32;;;;;;;1.74;98.56;100388.13;4993599;28;20029;-67
2023/01/19 08:20:22;;;;;;;25.23;14.05;;;;;;;1.77;98.16;100390.88;4993664;28;20026;-67
2023/01/19 08:22:47;;;;;;;28.05;14.02;;;;;;;1.76;98.38;100389.09;4993592;28;20038;-67
2023/01/19 08:25:13;;;;;;;25.55;13.93;;;;;;;1.80;98.07;100405.72;4993563;28;20031;-68
2023/01/19 08:27:38;;;;;;;24.45;13.80;;;;;;;1.79;98.42;100415.25;4993790;28;20073;-68
2023/01/19 08:30:04;;;;;;;20.50;12.85;;;;;;;1.81;98.07;100417.94;4993515;28;20492;-67
2023/01/19 08:32:30;;;;;;;27.23;13.77;;;;;;;1.83;98.32;100426.69;4993600;28;20029;-67
2023/01/19 08:34:55;;;;;;;27.90;14.75;;;;;;;1.82;98.07;100424.91;4993487;28;20037;-68
2023/01/19 08:37:20;;;;;;;24.10;14.27;;;;;;;1.83;98.45;100418.84;4993416;28;20488;-68
2023/01/19 08:39:46;;;;;;;29.00;15.55;;;;;;;1.84;98.57;100434.56;4975965;28;20449;-67
2023/01/19 08:42:11;;;;;;;28.58;15.05;;;;;;;1.88;98.33;100441.66;4993413;28;20033;-68
2023/01/19 08:44:37;;;;;;;28.38;15.90;;;;;;;1.90;98.20;100431.31;4993602;28;20536;-68
2023/01/19 08:47:02;;;;;;;25.40;14.90;;;;;;;1.89;97.92;100446.06;4975620;28;20053;-68
2023/01/19 08:49:27;;;;;;;26.65;14.23;;;;;;;1.88;97.93;100445.97;4993372;28;20058;-68
2023/01/19 08:51:53;;;;;;;31.80;15.90;;;;;;;1.88;97.79;100452.06;4993307;28;20061;-68
2023/01/19 08:54:20;;;;;;;29.17;15.55;;;;;;;1.86;97.78;100453.75;4993329;28;20058;-68
2023/01/19 08:56:45;;;;;;;30.70;15.98;;;;;;;1.84;97.94;100457.09;4976414;28;20038;-68
2023/01/19 08:59:11;;;;;;;30.45;15.15;;;;;;;1.79;98.36;100456.03;4975885;28;20034;-67
2023/01/19 09:01:36;;;;;;;32.63;16.23;;;;;;;1.80;98.17;100460.41;4993233;28;20068;-67
2023/01/19 09:04:02;;;;;;;31.52;15.98;;;;;;;1.84;98.26;100459.69;4993231;28;20141;-67
2023/01/19 09:06:27;;;;;;;30.42;16.42;;;;;;;1.86;98.77;100469.38;4993211;28;20082;-68
2023/01/19 09:08:53;;;;;;;32.13;16.27;;;;;;;1.99;98.89;100479.44;4993167;28;20069;-68
2023/01/19 09:11:18;;;;;;;30.95;15.55;;;;;;;2.08;98.63;100485.84;4979364;28;20038;-67
2023/01/19 09:13:44;;;;;;;31.67;16.23;;;;;;;2.07;98.10;100482.34;4996594;28;20089;-67
2023/01/19 09:16:11;;;;;;;31.75;16.90;;;;;;;2.08;97.86;100483.25;4996622;28;20030;-68
2023/01/19 09:18:37;;;;;;;33.65;15.45;;;;;;;2.06;97.45;100483.19;4996385;28;20472;-68
2023/01/19 09:21:03;;;;;;;33.70;17.00;;;;;;;2.04;97.60;100478.72;4979483;28;20027;-68
2023/01/19 09:23:29;;;;;;;33.03;16.55;;;;;;;2.03;97.87;100487.38;4996489;28;20030;-68
2023/01/19 09:25:59;;;;;;;37.67;17.35;;;;;;;2.04;97.78;100489.16;4996431;28;20114;-68
2023/01/19 09:28:25;;;;;;;32.17;17.15;;;;;;;2.05;97.69;100493.53;4996452;28;20072;-68
2023/01/19 09:30:51;;;;;;;33.00;16.30;;;;;;;1.97;97.69;100474.97;4996315;28;20031;-68
2023/01/19 09:33:18;;;;;;;37.80;16.92;;;;;;;2.04;97.88;100491.75;4996352;28;20038;-69
2023/01/19 09:35:45;;;;;;;33.38;16.42;;;;;;;2.05;97.87;100493.53;4996294;28;20101;-69
2023/01/19 09:38:14;;;;;;;33.83;17.77;;;;;;;2.06;98.34;100496.22;4978797;28;20026;-68
2023/01/19 09:40:48;;;;;;;34.33;16.67;;;;;;;2.11;98.09;100489.47;4996223;28;20027;-68
2023/01/19 09:43:36;;;;;;;44.00;18.40;;;;;;;2.28;98.66;100502.25;4996409;28;20041;-69
2023/01/19 09:46:05;;;;;;;37.38;17.25;;;;;;;2.34;98.05;100500.75;4983329;28;20046;-68
2023/01/19 09:48:33;;;;;;;32.38;18.38;;;;;;;2.41;96.96;100496.69;4996164;28;20027;-68
2023/01/19 09:51:03;;;;;;;32.33;16.20;;;;;;;2.42;97.39;100495.84;4995932;28;20538;-68
2023/01/19 09:54:06;;;;;;;37.58;16.75;;;;;;;2.63;97.11;100509.69;4996475;28;20435;-69
2023/01/19 09:56:32;;;;;;;37.80;15.80;;;;;;;2.89;96.69;100508.03;4995856;28;20022;-68
2023/01/19 09:58:58;;;;;;;36.08;16.90;;;;;;;3.18;97.49;100508.19;4995697;28;20030;-67
2023/01/19 10:01:24;;;;;;;29.83;15.95;;;;;;;3.39;95.18;100511.53;4995835;28;20050;-71
2023/01/19 10:04:00;;;;;;;33.88;15.70;;;;;;;3.58;94.68;100517.38;4995832;28;20473;-73
2023/01/19 10:06:26;;;;;;;33.40;15.25;;;;;;;3.70;94.20;100516.06;4971735;28;20030;-72
2023/01/19 10:09:03;;;;;;;29.95;15.32;;;;;;;3.84;93.21;100513.00;4995431;28;20033;-72
2023/01/19 10:12:01;;;;;;;27.58;14.63;;;;;;;4.03;91.33;100524.94;4995656;28;20061;-70
2023/01/19 10:14:35;;;;;;;24.05;13.98;;;;;;;4.11;91.65;100524.34;4980990;28;20037;-72
2023/01/19 10:17:22;;;;;;;27.38;12.73;;;;;;;4.25;91.04;100525.66;4995024;28;20030;-74
2023/01/19 10:19:53;;;;;;;22.17;12.30;;;;;;;4.15;89.15;100527.91;4995427;28;20027;-77
2023/01/19 10:22:21;;;;;;;25.00;13.15;;;;;;;4.12;89.78;100522.63;4995570;28;20049;-77
2023/01/19 10:24:51;;;;;;;26.25;13.13;;;;;;;4.08;89.73;100528.59;4995321;28;20022;-76
2023/01/19 10:27:21;;;;;;;24.38;12.63;;;;;;;4.01;89.80;100519.66;4995377;28;20034;-76
2023/01/19 10:29:47;;;;;;;22.60;12.50;;;;;;;3.96;89.62;100529.97;4995542;28;20034;-77
2023/01/19 10:32:34;;;;;;;18.95;11.63;;;;;;;4.12;90.13;100520.88;4995268;28;20031;-77
2023/01/19 10:35:09;;;;;;;24.92;12.23;;;;;;;4.37;89.91;100519.91;4994937;28;20034;-77
2023/01/19 10:37:40;;;;;;;21.50;11.80;;;;;;;4.66;88.97;100526.00;4995155;28;20046;-76
2023/01/19 10:40:08;;;;;;;20.70;11.45;;;;;;;4.95;89.23;100528.56;4995019;28;20042;-74
2023/01/19 10:42:35;;;;;;;26.95;11.95;;;;;;;5.09;87.56;100521.97;4977415;28;20070;-74
2023/01/19 10:45:01;;;;;;;25.42;11.05;;;;;;;5.20;86.93;100528.41;4994947;28;20034;-73
2023/01/19 10:47:34;;;;;;;25.60;10.40;;;;;;;5.29;85.95;100530.41;4994580;28;20050;-76
2023/01/19 10:50:22;;;;;;;21.80;11.20;;;;;;;5.43;86.97;100528.13;4994892;28;20049;-77
2023/01/19 10:52:59;;;;;;;19.95;10.50;;;;;;;5.53;85.74;100528.44;4977504;28;20026;-75
2023/01/19 10:55:24;;;;;;;21.13;10.90;;;;;;;5.56;84.60;100537.19;4994857;28;20381;-75
2023/01/19 10:57:51;;;;;;;20.70;10.90;;;;;;;5.59;84.78;100532.06;4994905;28;20029;-76
2023/01/19 11:00:36;;;;;;;21.63;10.80;;;;;;;5.72;84.90;100528.88;4994769;28;20062;-77
2023/01/19 11:03:04;;;;;;;20.75;10.45;;;;;;;5.74;82.99;100528.09;4994653;28;20030;-77
2023/01/19 11:05:32;;;;;;;20.58;10.90;;;;;;;5.78;83.54;100526.41;4993215;28;20057;-76
2023/01/19 11:07:58;;;;;;;22.75;11.60;;;;;;;5.81;83.17;100525.59;4976995;28;20190;-74
2023/01/19 11:10:26;;;;;;;16.77;10.27;;;;;;;5.88;83.13;100527.53;4994452;28;20501;-76
2023/01/19 11:13:11;;;;;;;21.17;10.10;;;;;;;5.92;82.56;100530.31;4993993;28;20050;-72
2023/01/19 11:15:49;;;;;;;20.55;9.80;;;;;;;6.07;82.93;100527.16;4994521;28;20108;-71
2023/01/19 11:18:29;;;;;;;19.08;10.52;;;;;;;6.01;81.80;100527.91;4994010;28;20034;-70
2023/01/19 11:20:57;;;;;;;19.23;10.27;;;;;;;6.01;81.08;100527.03;4994153;28;20030;-69
2023/01/19 11:23:33;;;;;;;21.40;10.32;;;;;;;6.13;80.64;100524.69;4994168;28;20026;-68
2023/01/19 11:26:01;;;;;;;17.95;10.32;;;;;;;6.21;80.59;100527.47;4994094;28;20078;-67
2023/01/19 11:28:41;;;;;;;22.50;10.13;;;;;;;6.35;81.15;100523.44;4994280;28;20030;-67
2023/01/19 11:31:09;;;;;;;20.20;10.25;;;;;;;6.51;80.61;100527.31;4994109;28;20065;-66
2023/01/19 11:33:40;;;;;;;16.95;10.38;;;;;;;6.67;79.87;100534.63;4993627;28;20033;-66
2023/01/19 11:36:19;;;;;;;20.75;10.55;;;;;;;6.68;79.33;100531.19;4993980;28;20040;-66
2023/01/19 11:38:49;;;;;;;17.95;10.60;;;;;;;6.82;78.68;100528.84;4994218;28;20034;-66
2023/01/19 11:41:21;;;;;;;18.98;10.25;;;;;;;6.97;78.26;100528.25;4993854;28;20049;-66